TimeCST,TemperatureF,Dew PointF,Humidity,Sea Level PressureIn,VisibilityMPH,Wind Direction,Wind SpeedMPH,Gust SpeedMPH,PrecipitationIn,Events,Conditions,WindDirDegrees,DateUTC
12:15 AM,21.2,15.8,80,30.17,10.0,NE,3.5,-,N/A,,Clear,40,2013-11-07 06:15:00
12:34 AM,17.6,12.2,79,30.18,10.0,Calm,Calm,-,N/A,,Scattered Clouds,0,2013-11-07 06:34:00
12:54 AM,17.6,12.2,79,30.18,10.0,Calm,Calm,-,N/A,,Mostly Cloudy,0,2013-11-07 06:54:00
1:15 AM,17.6,12.2,79,30.18,10.0,Calm,Calm,-,N/A,,Scattered Clouds,0,2013-11-07 07:15:00
1:34 AM,17.6,15.8,93,30.19,10.0,Calm,Calm,-,N/A,,Mostly Cloudy,0,2013-11-07 07:34:00
1:54 AM,19.4,15.8,86,30.18,10.0,Calm,Calm,-,N/A,,Overcast,0,2013-11-07 07:54:00
2:15 AM,21.2,17.6,86,30.18,10.0,Calm,Calm,-,N/A,,Overcast,0,2013-11-07 08:15:00
2:34 AM,21.2,15.8,80,30.18,10.0,Calm,Calm,-,N/A,,Scattered Clouds,0,2013-11-07 08:34:00
2:54 AM,19.4,15.8,86,30.18,10.0,Calm,Calm,-,N/A,,Clear,0,2013-11-07 08:54:00
3:14 AM,17.6,12.2,79,30.18,10.0,WNW,3.5,-,N/A,,Clear,290,2013-11-07 09:14:00
3:34 AM,17.6,12.2,79,30.19,10.0,WNW,3.5,-,N/A,,Scattered Clouds,290,2013-11-07 09:34:00
3:55 AM,17.6,12.2,79,30.18,10.0,WNW,3.5,-,N/A,,Scattered Clouds,290,2013-11-07 09:55:00
4:14 AM,17.6,14.0,86,30.19,10.0,WNW,4.6,-,N/A,,Mostly Cloudy,290,2013-11-07 10:14:00
4:34 AM,17.6,14.0,86,30.20,10.0,Calm,Calm,-,N/A,,Mostly Cloudy,0,2013-11-07 10:34:00
4:55 AM,17.6,14.0,86,30.20,10.0,Calm,Calm,-,N/A,,Clear,0,2013-11-07 10:55:00
5:14 AM,15.8,12.2,86,30.20,10.0,West,4.6,-,N/A,,Clear,280,2013-11-07 11:14:00
5:34 AM,15.8,12.2,86,30.20,10.0,Calm,Calm,-,N/A,,Clear,0,2013-11-07 11:34:00
5:55 AM,17.6,14.0,86,30.20,10.0,Calm,Calm,-,N/A,,Clear,0,2013-11-07 11:55:00
6:14 AM,17.6,14.0,86,30.20,10.0,West,4.6,-,N/A,,Clear,270,2013-11-07 12:14:00
6:34 AM,15.8,14.0,93,30.20,10.0,Calm,Calm,-,N/A,,Clear,0,2013-11-07 12:34:00
6:55 AM,17.6,14.0,86,30.20,10.0,West,3.5,-,N/A,,Scattered Clouds,280,2013-11-07 12:55:00
7:14 AM,17.6,14.0,86,30.20,10.0,Calm,Calm,-,N/A,,Mostly Cloudy,0,2013-11-07 13:14:00
7:34 AM,17.6,14.0,86,30.21,10.0,Calm,Calm,-,N/A,,Scattered Clouds,0,2013-11-07 13:34:00
7:55 AM,17.6,14.0,86,30.21,10.0,Calm,Calm,-,N/A,,Clear,0,2013-11-07 13:55:00
8:14 AM,19.4,15.8,86,30.21,10.0,Calm,Calm,-,N/A,,Scattered Clouds,0,2013-11-07 14:14:00
8:35 AM,21.2,15.8,80,30.21,10.0,Calm,Calm,-,N/A,,Overcast,0,2013-11-07 14:35:00
8:54 AM,21.2,17.6,86,30.21,10.0,Calm,Calm,-,N/A,,Scattered Clouds,0,2013-11-07 14:54:00
9:14 AM,23.0,17.6,80,30.21,10.0,Calm,Calm,-,N/A,,Clear,0,2013-11-07 15:14:00
9:35 AM,24.8,17.6,74,30.21,10.0,Calm,Calm,-,N/A,,Clear,0,2013-11-07 15:35:00
9:54 AM,24.8,17.6,74,30.21,10.0,West,4.6,-,N/A,,Scattered Clouds,260,2013-11-07 15:54:00
10:14 AM,26.6,17.6,69,30.22,10.0,West,3.5,-,N/A,,Mostly Cloudy,270,2013-11-07 16:14:00
10:35 AM,26.6,17.6,69,30.22,10.0,West,4.6,-,N/A,,Mostly Cloudy,280,2013-11-07 16:35:00
10:54 AM,28.4,19.4,69,30.22,10.0,West,6.9,-,N/A,,Mostly Cloudy,260,2013-11-07 16:54:00
11:15 AM,28.4,21.2,74,30.22,10.0,West,9.2,-,N/A,,Mostly Cloudy,280,2013-11-07 17:15:00
11:34 AM,28.4,21.2,74,30.21,10.0,WSW,8.1,-,N/A,,Mostly Cloudy,250,2013-11-07 17:34:00
11:54 AM,28.4,21.2,74,30.20,10.0,WSW,4.6,-,N/A,,Overcast,250,2013-11-07 17:54:00
12:15 PM,30.2,21.2,69,30.20,10.0,West,8.1,-,N/A,,Scattered Clouds,270,2013-11-07 18:15:00
12:34 PM,30.2,23.0,75,30.19,10.0,WNW,6.9,-,N/A,,Clear,300,2013-11-07 18:34:00
12:54 PM,32.0,24.8,75,30.18,10.0,WNW,6.9,-,N/A,,Clear,300,2013-11-07 18:54:00
1:15 PM,32.0,24.8,75,30.18,10.0,West,6.9,-,N/A,,Clear,270,2013-11-07 19:15:00
1:34 PM,33.8,24.8,70,30.18,10.0,WNW,6.9,-,N/A,,Clear,300,2013-11-07 19:34:00
1:55 PM,33.8,24.8,70,30.18,10.0,West,8.1,-,N/A,,Scattered Clouds,270,2013-11-07 19:55:00
2:14 PM,33.8,24.8,70,30.18,10.0,WSW,8.1,-,N/A,,Scattered Clouds,250,2013-11-07 20:14:00
2:34 PM,33.8,24.8,70,30.18,10.0,West,8.1,-,N/A,,Scattered Clouds,280,2013-11-07 20:34:00
2:55 PM,32.0,26.6,80,30.18,10.0,WSW,5.8,-,N/A,,Scattered Clouds,250,2013-11-07 20:55:00
3:14 PM,33.8,24.8,70,30.17,10.0,WSW,5.8,-,N/A,,Scattered Clouds,240,2013-11-07 21:14:00
3:34 PM,33.8,24.8,70,30.17,10.0,SW,4.6,-,N/A,,Clear,220,2013-11-07 21:34:00
3:55 PM,33.8,24.8,70,30.17,10.0,SW,6.9,-,N/A,,Clear,220,2013-11-07 21:55:00
4:14 PM,33.8,24.8,70,30.16,10.0,SSW,4.6,-,N/A,,Clear,210,2013-11-07 22:14:00
4:34 PM,30.2,24.8,80,30.16,10.0,South,4.6,-,N/A,,Clear,190,2013-11-07 22:34:00
4:55 PM,30.2,23.0,75,30.16,10.0,South,4.6,-,N/A,,Clear,190,2013-11-07 22:55:00
5:14 PM,28.4,23.0,80,30.16,10.0,South,3.5,-,N/A,,Clear,180,2013-11-07 23:14:00
5:34 PM,26.6,21.2,80,30.16,10.0,South,3.5,-,N/A,,Clear,180,2013-11-07 23:34:00
5:55 PM,24.8,19.4,80,30.16,10.0,SSE,4.6,-,N/A,,Clear,150,2013-11-07 23:55:00
6:14 PM,24.8,19.4,80,30.16,10.0,SSE,5.8,-,N/A,,Clear,150,2013-11-08 00:14:00
6:35 PM,24.8,19.4,80,30.16,10.0,SSE,6.9,-,N/A,,Clear,160,2013-11-08 00:35:00
6:54 PM,23.0,19.4,86,30.15,10.0,SSE,5.8,-,N/A,,Clear,160,2013-11-08 00:54:00
7:14 PM,21.2,19.4,93,30.16,10.0,South,4.6,-,N/A,,Clear,170,2013-11-08 01:14:00
7:35 PM,21.2,17.6,86,30.15,10.0,South,5.8,-,N/A,,Clear,170,2013-11-08 01:35:00
7:54 PM,19.4,17.6,93,30.15,10.0,South,5.8,-,N/A,,Clear,180,2013-11-08 01:54:00
8:14 PM,19.4,17.6,93,30.14,10.0,South,5.8,-,N/A,,Clear,170,2013-11-08 02:14:00
8:34 PM,19.4,17.6,93,30.13,10.0,SSE,6.9,-,N/A,,Clear,160,2013-11-08 02:34:00
8:54 PM,21.2,19.4,93,30.14,10.0,South,5.8,-,N/A,,Clear,190,2013-11-08 02:54:00
9:15 PM,19.4,17.6,93,30.13,10.0,South,5.8,-,N/A,,Clear,180,2013-11-08 03:15:00
9:34 PM,21.2,19.4,93,30.13,10.0,South,5.8,-,N/A,,Clear,170,2013-11-08 03:34:00
9:55 PM,19.4,17.6,93,30.12,10.0,SSE,5.8,-,N/A,,Clear,160,2013-11-08 03:55:00
10:14 PM,19.4,17.6,93,30.11,10.0,SSE,8.1,-,N/A,,Clear,160,2013-11-08 04:14:00
10:34 PM,19.4,17.6,93,30.11,10.0,SSE,6.9,-,N/A,,Clear,160,2013-11-08 04:34:00
10:55 PM,19.4,17.6,93,30.10,10.0,SSE,6.9,-,N/A,,Clear,150,2013-11-08 04:55:00
11:14 PM,19.4,17.6,93,30.10,10.0,SSE,5.8,-,N/A,,Clear,160,2013-11-08 05:14:00
11:34 PM,19.4,17.6,93,30.10,10.0,South,5.8,-,N/A,,Clear,170,2013-11-08 05:34:00
11:55 PM,19.4,17.6,93,30.10,10.0,South,5.8,-,N/A,,Clear,180,2013-11-08 05:55:00